Grand Prairie, TX (75051)

7:13 PM CDT on July 07, 2015 (GMT -0500)
Country Club Park | | Change Station
CLOSE
Current Station
Personal Weather Station
Location: Grand Prairie, TX
Elevation: 492 ft
Nearby Weather Stations
Active Advisory: Flood Warning

Elev 492 ft 32.69 °N, 96.99 °W | Updated 3 minutes ago

Mostly Cloudy
Mostly Cloudy
87.6 °F
Feels Like 93 °F
N
7.0
Wind Variable Wind from South
Gusts 11.0 mph

Today
High -- | Low -- °F
--% Chance of Precip.
Yesterday
High -- | Low -- °F
Precip. -- in
6:26 AM 8:39 PM
Waning Gibbous, 60% visible
Pressure 29.92 in
Visibility 10.0 miles
Clouds Clear
Heat Index 93 °F
Dew Point 71 °F
Humidity 58%
Rainfall 0.00 in
Snow Depth Not available.
UV 4 out of 12
Pollen 4.50 out of 12
Air Quality Not available.
Flu Activity Not available.
METAR KGPM 072250Z 17009G16KT 10SM SKC 31/22 A2992

More Conditions Fewer Conditions

Pressure 29.92 in
Visibility 10.0 miles
Clouds Clear
Heat Index 93 °F
Dew Point 71 °F
Humidity 58%
Rainfall 0.00 in
Snow Depth Not available.
UV 4 out of 12
Pollen 4.50 out of 12
Air Quality Not available.
Flu Activity Not available.
METAR KGPM 072250Z 17009G16KT 10SM SKC 31/22 A2992

More Conditions Fewer Conditions

Nowcast | as of 5:56 PM CDT on July 7, 2015

Scattered showers and isolated thunderstorms will continue across much of north and central Texas through the evening hours. Additional widespread showers and storms are expected to develop late this evening and overnight along and west of a Gainesville to Cleburne to Comanche line. Stronger cells will be capable of producing heavy rain and lightning. Elsewhere...skies will remain mostly cloudy with temperatures in the 80s for most locations and south winds at 10 to 20 mph.

×

10-Day Weather Forecast

×

Almanac

Astronomy

Jul. 07, 2015 Rise Set
Actual Time
Civil Twilight
Nautical Twilight
Astronomical Twilight
Moon
Length of Visible Light
Length of Day
Tomorrow will be .
, % of the Moon is Illuminated

Today's Extremes

State Highs State Lows

Community

WunderPhotos

Upload Photos

1,835,970 photos uploaded!

WunderBlogs® & News

Nearby

Air Quality

  Air Quality AQ Index Pollutant
Not available.

Snow Depth

Station Depth Elevation

Earthquake Activity

City Distance Mag. Time & Date
Minimum magnitude displayed is 2.5.

Coastal Water Temperatures

Place Temperature

Stations

Nearby Weather Stations

Station Location Temp. Windchill Dew Point Humidity Wind Precip. Elev Updated Type
                   
Flood Warning
Statement as of 9:32 AM CDT on July 07, 2015

The Flood Warning continues for
the Elm Fork Trinity River near Carrollton.
* At 0915 am Tuesday the stage was 8.29 feet.
* Flood stage is 8 feet.
* Minor flooding is occurring and minor flooding is forecast.
* Forecast... the river will continue rising to a crest near 8 feet
by Tuesday evening then begin falling but remain above flood stage.
* At 8 feet, minor flooding will occur downstream from the gage.


Lat... Lon 3300 9700 3287 9699 3287 9687 3300 9688